sensor_id;sensor_type;location;lat;lon;timestamp;P1;durP1;ratioP1;P2;durP2;ratioP2
83562;SDS011;73535;52.500;13.482;2024-03-08T00:00:13;9.52;;;7.55;;
83562;SDS011;73535;52.500;13.482;2024-03-08T00:02:44;8.43;;;7.43;;
83562;SDS011;73535;52.500;13.482;2024-03-08T00:05:11;8.98;;;7.72;;
83562;SDS011;73535;52.500;13.482;2024-03-08T00:07:37;8.80;;;7.40;;
83562;SDS011;73535;52.500;13.482;2024-03-08T00:10:03;8.52;;;7.43;;
83562;SDS011;73535;52.500;13.482;2024-03-08T00:14:54;10.95;;;8.20;;
83562;SDS011;73535;52.500;13.482;2024-03-08T00:17:20;8.65;;;7.13;;
83562;SDS011;73535;52.500;13.482;2024-03-08T00:19:47;10.65;;;8.45;;
83562;SDS011;73535;52.500;13.482;2024-03-08T00:22:14;10.10;;;8.02;;
83562;SDS011;73535;52.500;13.482;2024-03-08T00:24:39;8.73;;;7.47;;
83562;SDS011;73535;52.500;13.482;2024-03-08T00:27:05;8.35;;;7.40;;
83562;SDS011;73535;52.500;13.482;2024-03-08T00:31:56;9.23;;;7.57;;
83562;SDS011;73535;52.500;13.482;2024-03-08T00:36:46;7.93;;;7.13;;
83562;SDS011;73535;52.500;13.482;2024-03-08T00:39:12;8.65;;;7.75;;
83562;SDS011;73535;52.500;13.482;2024-03-08T00:41:38;8.18;;;7.38;;
83562;SDS011;73535;52.500;13.482;2024-03-08T00:46:29;8.95;;;6.95;;
83562;SDS011;73535;52.500;13.482;2024-03-08T00:48:56;8.15;;;6.80;;
83562;SDS011;73535;52.500;13.482;2024-03-08T00:51:21;8.77;;;7.30;;
83562;SDS011;73535;52.500;13.482;2024-03-08T00:53:47;8.68;;;7.65;;
83562;SDS011;73535;52.500;13.482;2024-03-08T00:56:12;7.93;;;7.13;;
83562;SDS011;73535;52.500;13.482;2024-03-08T00:58:37;8.20;;;7.28;;
83562;SDS011;73535;52.500;13.482;2024-03-08T01:01:02;9.55;;;7.95;;
83562;SDS011;73535;52.500;13.482;2024-03-08T01:03:29;10.00;;;8.32;;
83562;SDS011;73535;52.500;13.482;2024-03-08T01:05:56;8.90;;;7.72;;
83562;SDS011;73535;52.500;13.482;2024-03-08T01:08:22;7.93;;;7.13;;
83562;SDS011;73535;52.500;13.482;2024-03-08T01:10:48;7.80;;;6.80;;
83562;SDS011;73535;52.500;13.482;2024-03-08T01:13:15;8.90;;;7.22;;
83562;SDS011;73535;52.500;13.482;2024-03-08T01:15:40;8.75;;;7.85;;
83562;SDS011;73535;52.500;13.482;2024-03-08T01:18:06;8.23;;;6.50;;
83562;SDS011;73535;52.500;13.482;2024-03-08T01:20:31;8.00;;;7.00;;
83562;SDS011;73535;52.500;13.482;2024-03-08T01:25:22;8.80;;;7.17;;
83562;SDS011;73535;52.500;13.482;2024-03-08T01:27:47;8.27;;;7.38;;
83562;SDS011;73535;52.500;13.482;2024-03-08T01:30:13;8.45;;;7.55;;
83562;SDS011;73535;52.500;13.482;2024-03-08T01:32:42;9.63;;;7.45;;
83562;SDS011;73535;52.500;13.482;2024-03-08T01:35:08;8.98;;;7.45;;
83562;SDS011;73535;52.500;13.482;2024-03-08T01:37:34;8.88;;;7.35;;
83562;SDS011;73535;52.500;13.482;2024-03-08T01:39:59;7.72;;;6.70;;
83562;SDS011;73535;52.500;13.482;2024-03-08T01:42:25;8.98;;;7.10;;
83562;SDS011;73535;52.500;13.482;2024-03-08T01:44:50;8.75;;;7.75;;
83562;SDS011;73535;52.500;13.482;2024-03-08T01:47:16;9.10;;;8.10;;
83562;SDS011;73535;52.500;13.482;2024-03-08T01:49:41;7.97;;;7.18;;
83562;SDS011;73535;52.500;13.482;2024-03-08T01:52:07;8.75;;;7.50;;
83562;SDS011;73535;52.500;13.482;2024-03-08T01:54:32;8.48;;;7.15;;
83562;SDS011;73535;52.500;13.482;2024-03-08T01:56:59;8.32;;;7.53;;
83562;SDS011;73535;52.500;13.482;2024-03-08T01:59:25;8.18;;;7.38;;
83562;SDS011;73535;52.500;13.482;2024-03-08T02:01:51;7.65;;;6.43;;
83562;SDS011;73535;52.500;13.482;2024-03-08T02:04:20;7.82;;;7.03;;
83562;SDS011;73535;52.500;13.482;2024-03-08T02:06:46;9.68;;;7.13;;
83562;SDS011;73535;52.500;13.482;2024-03-08T02:09:11;9.32;;;7.00;;
83562;SDS011;73535;52.500;13.482;2024-03-08T02:11:36;8.32;;;7.35;;
83562;SDS011;73535;52.500;13.482;2024-03-08T02:14:02;9.13;;;6.80;;
83562;SDS011;73535;52.500;13.482;2024-03-08T02:18:52;8.47;;;7.47;;
83562;SDS011;73535;52.500;13.482;2024-03-08T02:21:18;8.18;;;7.10;;
83562;SDS011;73535;52.500;13.482;2024-03-08T02:23:43;7.93;;;7.13;;
83562;SDS011;73535;52.500;13.482;2024-03-08T02:28:34;8.23;;;6.80;;
83562;SDS011;73535;52.500;13.482;2024-03-08T02:30:59;7.70;;;6.85;;
83562;SDS011;73535;52.500;13.482;2024-03-08T02:33:27;8.60;;;7.30;;
83562;SDS011;73535;52.500;13.482;2024-03-08T02:35:52;8.68;;;7.57;;
83562;SDS011;73535;52.500;13.482;2024-03-08T02:38:18;9.13;;;7.28;;
83562;SDS011;73535;52.500;13.482;2024-03-08T02:40:45;8.93;;;7.50;;
83562;SDS011;73535;52.500;13.482;2024-03-08T02:43:12;7.80;;;7.00;;
83562;SDS011;73535;52.500;13.482;2024-03-08T02:45:39;8.65;;;7.20;;
83562;SDS011;73535;52.500;13.482;2024-03-08T02:48:06;8.75;;;7.22;;
83562;SDS011;73535;52.500;13.482;2024-03-08T02:50:32;8.52;;;6.90;;
83562;SDS011;73535;52.500;13.482;2024-03-08T02:52:59;8.85;;;7.30;;
83562;SDS011;73535;52.500;13.482;2024-03-08T02:55:24;7.93;;;6.97;;
83562;SDS011;73535;52.500;13.482;2024-03-08T02:57:51;8.18;;;7.20;;
83562;SDS011;73535;52.500;13.482;2024-03-08T03:00:16;8.20;;;7.40;;
83562;SDS011;73535;52.500;13.482;2024-03-08T03:02:44;8.27;;;7.18;;
83562;SDS011;73535;52.500;13.482;2024-03-08T03:05:09;8.80;;;7.43;;
83562;SDS011;73535;52.500;13.482;2024-03-08T03:07:36;8.50;;;7.43;;
83562;SDS011;73535;52.500;13.482;2024-03-08T03:10:02;9.43;;;7.18;;
83562;SDS011;73535;52.500;13.482;2024-03-08T03:12:28;10.63;;;8.32;;
83562;SDS011;73535;52.500;13.482;2024-03-08T03:14:53;10.75;;;7.75;;
83562;SDS011;73535;52.500;13.482;2024-03-08T03:17:19;8.95;;;6.95;;
83562;SDS011;73535;52.500;13.482;2024-03-08T03:19:45;8.40;;;7.45;;
83562;SDS011;73535;52.500;13.482;2024-03-08T03:22:11;9.30;;;7.15;;
83562;SDS011;73535;52.500;13.482;2024-03-08T03:24:36;8.20;;;7.25;;
83562;SDS011;73535;52.500;13.482;2024-03-08T03:27:03;9.13;;;7.55;;
83562;SDS011;73535;52.500;13.482;2024-03-08T03:29:35;7.40;;;6.47;;
83562;SDS011;73535;52.500;13.482;2024-03-08T03:32:00;8.90;;;7.45;;
83562;SDS011;73535;52.500;13.482;2024-03-08T03:34:27;8.02;;;7.22;;
83562;SDS011;73535;52.500;13.482;2024-03-08T03:36:53;8.30;;;7.40;;
83562;SDS011;73535;52.500;13.482;2024-03-08T03:39:20;8.98;;;7.55;;
83562;SDS011;73535;52.500;13.482;2024-03-08T03:41:47;8.90;;;7.18;;
83562;SDS011;73535;52.500;13.482;2024-03-08T03:44:14;8.40;;;7.10;;
83562;SDS011;73535;52.500;13.482;2024-03-08T03:46:41;9.30;;;7.93;;
83562;SDS011;73535;52.500;13.482;2024-03-08T03:49:09;8.98;;;8.07;;
83562;SDS011;73535;52.500;13.482;2024-03-08T03:51:34;8.75;;;7.43;;
83562;SDS011;73535;52.500;13.482;2024-03-08T03:53:59;8.52;;;7.40;;
83562;SDS011;73535;52.500;13.482;2024-03-08T03:56:25;8.60;;;7.13;;
83562;SDS011;73535;52.500;13.482;2024-03-08T03:58:51;9.27;;;8.07;;
83562;SDS011;73535;52.500;13.482;2024-03-08T04:01:16;8.15;;;7.20;;
83562;SDS011;73535;52.500;13.482;2024-03-08T04:03:42;9.25;;;7.97;;
83562;SDS011;73535;52.500;13.482;2024-03-08T04:06:08;9.50;;;7.53;;
83562;SDS011;73535;52.500;13.482;2024-03-08T04:10:59;8.05;;;7.07;;
83562;SDS011;73535;52.500;13.482;2024-03-08T04:13:24;8.82;;;7.35;;
83562;SDS011;73535;52.500;13.482;2024-03-08T04:15:50;9.73;;;7.07;;
83562;SDS011;73535;52.500;13.482;2024-03-08T04:18:15;8.05;;;7.25;;
83562;SDS011;73535;52.500;13.482;2024-03-08T04:20:40;8.30;;;7.32;;
83562;SDS011;73535;52.500;13.482;2024-03-08T04:23:06;8.88;;;7.03;;
83562;SDS011;73535;52.500;13.482;2024-03-08T04:25:31;8.88;;;7.93;;
83562;SDS011;73535;52.500;13.482;2024-03-08T04:27:56;9.25;;;8.00;;
83562;SDS011;73535;52.500;13.482;2024-03-08T04:30:22;8.88;;;7.97;;
83562;SDS011;73535;52.500;13.482;2024-03-08T04:32:47;8.45;;;7.45;;
83562;SDS011;73535;52.500;13.482;2024-03-08T04:35:12;8.93;;;7.85;;
83562;SDS011;73535;52.500;13.482;2024-03-08T04:37:38;7.90;;;7.03;;
83562;SDS011;73535;52.500;13.482;2024-03-08T04:40:03;8.55;;;7.57;;
83562;SDS011;73535;52.500;13.482;2024-03-08T04:42:29;9.68;;;8.35;;
83562;SDS011;73535;52.500;13.482;2024-03-08T04:44:55;10.10;;;8.00;;
83562;SDS011;73535;52.500;13.482;2024-03-08T04:47:20;9.65;;;7.90;;
83562;SDS011;73535;52.500;13.482;2024-03-08T04:49:45;10.43;;;8.68;;
83562;SDS011;73535;52.500;13.482;2024-03-08T04:52:11;9.73;;;8.10;;
83562;SDS011;73535;52.500;13.482;2024-03-08T04:54:37;10.27;;;6.97;;
83562;SDS011;73535;52.500;13.482;2024-03-08T04:57:02;9.15;;;7.78;;
83562;SDS011;73535;52.500;13.482;2024-03-08T04:59:29;10.18;;;8.23;;
83562;SDS011;73535;52.500;13.482;2024-03-08T05:01:54;9.60;;;8.25;;
83562;SDS011;73535;52.500;13.482;2024-03-08T05:04:20;10.00;;;7.97;;
83562;SDS011;73535;52.500;13.482;2024-03-08T05:09:10;9.53;;;8.10;;
83562;SDS011;73535;52.500;13.482;2024-03-08T05:11:44;9.30;;;8.32;;
83562;SDS011;73535;52.500;13.482;2024-03-08T05:14:14;9.10;;;7.82;;
83562;SDS011;73535;52.500;13.482;2024-03-08T05:16:44;10.30;;;8.73;;
83562;SDS011;73535;52.500;13.482;2024-03-08T05:19:15;11.00;;;8.25;;
83562;SDS011;73535;52.500;13.482;2024-03-08T05:21:44;9.80;;;8.52;;
83562;SDS011;73535;52.500;13.482;2024-03-08T05:24:10;9.82;;;8.32;;
83562;SDS011;73535;52.500;13.482;2024-03-08T05:26:35;9.45;;;8.05;;
83562;SDS011;73535;52.500;13.482;2024-03-08T05:29:02;9.40;;;8.20;;
83562;SDS011;73535;52.500;13.482;2024-03-08T05:31:28;10.48;;;8.52;;
83562;SDS011;73535;52.500;13.482;2024-03-08T05:33:53;10.38;;;7.82;;
83562;SDS011;73535;52.500;13.482;2024-03-08T05:36:20;8.90;;;7.95;;
83562;SDS011;73535;52.500;13.482;2024-03-08T05:38:46;9.80;;;8.07;;
83562;SDS011;73535;52.500;13.482;2024-03-08T05:41:11;10.38;;;8.18;;
83562;SDS011;73535;52.500;13.482;2024-03-08T05:43:37;10.50;;;8.80;;
83562;SDS011;73535;52.500;13.482;2024-03-08T05:46:02;10.07;;;8.52;;
83562;SDS011;73535;52.500;13.482;2024-03-08T05:48:29;9.60;;;8.35;;
83562;SDS011;73535;52.500;13.482;2024-03-08T05:50:54;10.57;;;8.32;;
83562;SDS011;73535;52.500;13.482;2024-03-08T05:53:21;9.80;;;8.55;;
83562;SDS011;73535;52.500;13.482;2024-03-08T05:55:47;10.43;;;9.02;;
83562;SDS011;73535;52.500;13.482;2024-03-08T05:58:12;10.38;;;8.60;;
83562;SDS011;73535;52.500;13.482;2024-03-08T06:00:37;11.75;;;8.85;;
83562;SDS011;73535;52.500;13.482;2024-03-08T06:03:02;9.20;;;7.90;;
83562;SDS011;73535;52.500;13.482;2024-03-08T06:05:28;9.57;;;8.57;;
83562;SDS011;73535;52.500;13.482;2024-03-08T06:07:53;11.20;;;8.57;;
83562;SDS011;73535;52.500;13.482;2024-03-08T06:10:18;11.65;;;8.90;;
83562;SDS011;73535;52.500;13.482;2024-03-08T06:12:44;10.18;;;8.60;;
83562;SDS011;73535;52.500;13.482;2024-03-08T06:15:10;10.68;;;8.48;;
83562;SDS011;73535;52.500;13.482;2024-03-08T06:17:39;11.32;;;9.00;;
83562;SDS011;73535;52.500;13.482;2024-03-08T06:20:04;9.82;;;8.70;;
83562;SDS011;73535;52.500;13.482;2024-03-08T06:22:35;11.15;;;8.48;;
83562;SDS011;73535;52.500;13.482;2024-03-08T06:25:00;9.07;;;8.05;;
83562;SDS011;73535;52.500;13.482;2024-03-08T06:27:26;10.98;;;8.95;;
83562;SDS011;73535;52.500;13.482;2024-03-08T06:29:51;9.73;;;8.57;;
83562;SDS011;73535;52.500;13.482;2024-03-08T06:32:16;12.63;;;8.65;;
83562;SDS011;73535;52.500;13.482;2024-03-08T06:34:41;12.07;;;9.10;;
83562;SDS011;73535;52.500;13.482;2024-03-08T06:37:07;9.02;;;8.10;;
83562;SDS011;73535;52.500;13.482;2024-03-08T06:39:32;10.15;;;8.88;;
83562;SDS011;73535;52.500;13.482;2024-03-08T06:41:59;9.60;;;8.43;;
83562;SDS011;73535;52.500;13.482;2024-03-08T06:44:24;11.20;;;8.85;;
83562;SDS011;73535;52.500;13.482;2024-03-08T06:46:50;9.70;;;8.52;;
83562;SDS011;73535;52.500;13.482;2024-03-08T06:49:15;11.30;;;9.10;;
83562;SDS011;73535;52.500;13.482;2024-03-08T06:51:41;10.23;;;8.18;;
83562;SDS011;73535;52.500;13.482;2024-03-08T06:54:06;9.82;;;8.40;;
83562;SDS011;73535;52.500;13.482;2024-03-08T06:56:33;12.23;;;8.80;;
83562;SDS011;73535;52.500;13.482;2024-03-08T06:59:02;11.20;;;8.27;;
83562;SDS011;73535;52.500;13.482;2024-03-08T07:01:28;10.90;;;9.18;;
83562;SDS011;73535;52.500;13.482;2024-03-08T07:03:56;10.85;;;9.27;;
83562;SDS011;73535;52.500;13.482;2024-03-08T07:06:22;10.80;;;8.88;;
83562;SDS011;73535;52.500;13.482;2024-03-08T07:08:47;13.02;;;9.60;;
83562;SDS011;73535;52.500;13.482;2024-03-08T07:11:13;10.55;;;9.45;;
83562;SDS011;73535;52.500;13.482;2024-03-08T07:13:43;11.10;;;9.27;;
83562;SDS011;73535;52.500;13.482;2024-03-08T07:16:08;10.52;;;9.38;;
83562;SDS011;73535;52.500;13.482;2024-03-08T07:18:33;11.15;;;8.63;;
83562;SDS011;73535;52.500;13.482;2024-03-08T07:20:59;9.48;;;8.40;;
83562;SDS011;73535;52.500;13.482;2024-03-08T07:23:26;11.07;;;9.25;;
83562;SDS011;73535;52.500;13.482;2024-03-08T07:26:10;11.20;;;8.90;;
83562;SDS011;73535;52.500;13.482;2024-03-08T07:28:36;10.38;;;9.27;;
83562;SDS011;73535;52.500;13.482;2024-03-08T07:31:01;9.98;;;8.30;;
83562;SDS011;73535;52.500;13.482;2024-03-08T07:33:38;9.70;;;8.20;;
83562;SDS011;73535;52.500;13.482;2024-03-08T07:36:03;10.95;;;9.40;;
83562;SDS011;73535;52.500;13.482;2024-03-08T07:38:29;11.27;;;9.13;;
83562;SDS011;73535;52.500;13.482;2024-03-08T07:40:55;12.68;;;9.80;;
83562;SDS011;73535;52.500;13.482;2024-03-08T07:43:22;13.75;;;10.13;;
83562;SDS011;73535;52.500;13.482;2024-03-08T07:45:47;14.18;;;11.07;;
83562;SDS011;73535;52.500;13.482;2024-03-08T07:48:12;15.40;;;12.32;;
83562;SDS011;73535;52.500;13.482;2024-03-08T07:50:38;16.80;;;12.88;;
83562;SDS011;73535;52.500;13.482;2024-03-08T07:53:07;14.05;;;12.48;;
83562;SDS011;73535;52.500;13.482;2024-03-08T07:55:33;16.63;;;14.13;;
83562;SDS011;73535;52.500;13.482;2024-03-08T07:58:00;15.15;;;12.63;;
83562;SDS011;73535;52.500;13.482;2024-03-08T08:00:25;15.68;;;13.20;;
83562;SDS011;73535;52.500;13.482;2024-03-08T08:02:52;14.35;;;12.82;;
83562;SDS011;73535;52.500;13.482;2024-03-08T08:05:17;15.88;;;13.18;;
83562;SDS011;73535;52.500;13.482;2024-03-08T08:07:46;15.25;;;12.45;;
83562;SDS011;73535;52.500;13.482;2024-03-08T08:10:12;14.90;;;12.07;;
83562;SDS011;73535;52.500;13.482;2024-03-08T08:12:43;14.70;;;11.68;;
83562;SDS011;73535;52.500;13.482;2024-03-08T08:15:09;15.85;;;12.10;;
83562;SDS011;73535;52.500;13.482;2024-03-08T08:19:59;15.25;;;13.35;;
83562;SDS011;73535;52.500;13.482;2024-03-08T08:22:25;14.65;;;13.10;;
83562;SDS011;73535;52.500;13.482;2024-03-08T08:27:16;16.00;;;12.48;;
83562;SDS011;73535;52.500;13.482;2024-03-08T08:32:06;14.07;;;12.33;;
83562;SDS011;73535;52.500;13.482;2024-03-08T08:36:56;13.90;;;12.33;;
83562;SDS011;73535;52.500;13.482;2024-03-08T08:39:22;13.73;;;11.68;;
83562;SDS011;73535;52.500;13.482;2024-03-08T08:44:12;14.73;;;13.13;;
83562;SDS011;73535;52.500;13.482;2024-03-08T08:46:38;15.38;;;12.60;;
83562;SDS011;73535;52.500;13.482;2024-03-08T08:49:04;16.25;;;14.18;;
83562;SDS011;73535;52.500;13.482;2024-03-08T08:51:31;16.08;;;13.13;;
83562;SDS011;73535;52.500;13.482;2024-03-08T08:53:58;17.60;;;13.70;;
83562;SDS011;73535;52.500;13.482;2024-03-08T08:56:24;21.30;;;14.25;;
83562;SDS011;73535;52.500;13.482;2024-03-08T08:58:50;22.13;;;14.68;;
83562;SDS011;73535;52.500;13.482;2024-03-08T09:01:15;20.15;;;13.30;;
83562;SDS011;73535;52.500;13.482;2024-03-08T09:03:43;26.08;;;15.10;;
83562;SDS011;73535;52.500;13.482;2024-03-08T09:06:11;36.33;;;16.95;;
83562;SDS011;73535;52.500;13.482;2024-03-08T09:08:36;25.23;;;17.42;;
83562;SDS011;73535;52.500;13.482;2024-03-08T09:13:28;29.50;;;18.57;;
83562;SDS011;73535;52.500;13.482;2024-03-08T09:15:53;35.92;;;17.73;;
83562;SDS011;73535;52.500;13.482;2024-03-08T09:18:18;29.83;;;16.80;;
83562;SDS011;73535;52.500;13.482;2024-03-08T09:23:09;29.00;;;17.70;;
83562;SDS011;73535;52.500;13.482;2024-03-08T09:27:59;28.73;;;17.30;;
83562;SDS011;73535;52.500;13.482;2024-03-08T09:32:50;32.53;;;17.87;;
83562;SDS011;73535;52.500;13.482;2024-03-08T09:37:41;31.23;;;17.40;;
83562;SDS011;73535;52.500;13.482;2024-03-08T09:40:06;28.02;;;16.67;;
83562;SDS011;73535;52.500;13.482;2024-03-08T09:42:34;24.88;;;17.63;;
83562;SDS011;73535;52.500;13.482;2024-03-08T09:45:03;28.20;;;17.95;;
83562;SDS011;73535;52.500;13.482;2024-03-08T09:47:32;26.92;;;17.35;;
83562;SDS011;73535;52.500;13.482;2024-03-08T09:49:59;28.50;;;16.67;;
83562;SDS011;73535;52.500;13.482;2024-03-08T09:52:25;26.13;;;17.25;;
83562;SDS011;73535;52.500;13.482;2024-03-08T09:57:16;27.40;;;17.10;;
83562;SDS011;73535;52.500;13.482;2024-03-08T09:59:43;26.00;;;17.80;;
83562;SDS011;73535;52.500;13.482;2024-03-08T10:02:13;25.85;;;17.20;;
83562;SDS011;73535;52.500;13.482;2024-03-08T10:04:40;21.67;;;16.65;;
83562;SDS011;73535;52.500;13.482;2024-03-08T10:07:07;28.75;;;17.52;;
83562;SDS011;73535;52.500;13.482;2024-03-08T10:09:32;24.35;;;16.95;;
83562;SDS011;73535;52.500;13.482;2024-03-08T10:14:24;21.63;;;15.15;;
83562;SDS011;73535;52.500;13.482;2024-03-08T10:16:51;21.73;;;15.55;;
83562;SDS011;73535;52.500;13.482;2024-03-08T10:19:17;19.25;;;14.85;;
83562;SDS011;73535;52.500;13.482;2024-03-08T10:21:49;20.52;;;15.25;;
83562;SDS011;73535;52.500;13.482;2024-03-08T10:24:14;22.58;;;16.83;;
83562;SDS011;73535;52.500;13.482;2024-03-08T10:26:40;24.08;;;18.63;;
83562;SDS011;73535;52.500;13.482;2024-03-08T10:31:32;20.70;;;14.63;;
83562;SDS011;73535;52.500;13.482;2024-03-08T10:33:58;21.83;;;15.20;;
83562;SDS011;73535;52.500;13.482;2024-03-08T10:36:23;23.40;;;16.45;;
83562;SDS011;73535;52.500;13.482;2024-03-08T10:38:50;20.98;;;16.92;;
83562;SDS011;73535;52.500;13.482;2024-03-08T10:41:18;19.90;;;16.83;;
83562;SDS011;73535;52.500;13.482;2024-03-08T10:46:48;20.33;;;17.98;;
83562;SDS011;73535;52.500;13.482;2024-03-08T10:49:37;22.33;;;18.17;;
83562;SDS011;73535;52.500;13.482;2024-03-08T10:52:06;24.08;;;19.33;;
83562;SDS011;73535;52.500;13.482;2024-03-08T10:54:34;25.33;;;20.58;;
83562;SDS011;73535;52.500;13.482;2024-03-08T10:57:03;24.63;;;20.65;;
83562;SDS011;73535;52.500;13.482;2024-03-08T10:59:30;37.88;;;22.48;;
83562;SDS011;73535;52.500;13.482;2024-03-08T11:01:56;38.45;;;21.77;;
83562;SDS011;73535;52.500;13.482;2024-03-08T11:04:22;41.15;;;24.17;;
83562;SDS011;73535;52.500;13.482;2024-03-08T11:06:47;43.50;;;26.00;;
83562;SDS011;73535;52.500;13.482;2024-03-08T11:09:27;39.63;;;25.33;;
83562;SDS011;73535;52.500;13.482;2024-03-08T11:12:18;46.15;;;28.02;;
83562;SDS011;73535;52.500;13.482;2024-03-08T11:14:47;46.78;;;27.40;;
83562;SDS011;73535;52.500;13.482;2024-03-08T11:17:20;46.55;;;28.55;;
83562;SDS011;73535;52.500;13.482;2024-03-08T11:19:47;42.38;;;27.67;;
83562;SDS011;73535;52.500;13.482;2024-03-08T11:22:20;37.13;;;22.13;;
83562;SDS011;73535;52.500;13.482;2024-03-08T11:24:52;42.30;;;25.13;;
83562;SDS011;73535;52.500;13.482;2024-03-08T11:27:17;42.10;;;27.48;;
83562;SDS011;73535;52.500;13.482;2024-03-08T11:29:45;42.17;;;26.35;;
83562;SDS011;73535;52.500;13.482;2024-03-08T11:32:23;39.28;;;25.23;;
83562;SDS011;73535;52.500;13.482;2024-03-08T11:34:53;42.45;;;25.88;;
83562;SDS011;73535;52.500;13.482;2024-03-08T11:37:19;37.95;;;25.15;;
83562;SDS011;73535;52.500;13.482;2024-03-08T11:39:49;38.30;;;24.13;;
83562;SDS011;73535;52.500;13.482;2024-03-08T11:42:23;37.42;;;25.17;;
83562;SDS011;73535;52.500;13.482;2024-03-08T11:44:50;36.15;;;23.38;;
83562;SDS011;73535;52.500;13.482;2024-03-08T11:47:15;33.42;;;22.02;;
83562;SDS011;73535;52.500;13.482;2024-03-08T11:49:41;32.60;;;23.05;;
83562;SDS011;73535;52.500;13.482;2024-03-08T11:52:13;34.67;;;21.65;;
83562;SDS011;73535;52.500;13.482;2024-03-08T11:54:40;33.30;;;21.30;;
83562;SDS011;73535;52.500;13.482;2024-03-08T11:57:06;24.50;;;17.98;;
83562;SDS011;73535;52.500;13.482;2024-03-08T11:59:32;25.23;;;15.07;;
83562;SDS011;73535;52.500;13.482;2024-03-08T12:02:06;25.50;;;15.55;;
83562;SDS011;73535;52.500;13.482;2024-03-08T12:04:34;20.85;;;13.73;;
83562;SDS011;73535;52.500;13.482;2024-03-08T12:07:01;23.27;;;13.73;;
83562;SDS011;73535;52.500;13.482;2024-03-08T12:09:27;19.77;;;14.00;;
83562;SDS011;73535;52.500;13.482;2024-03-08T12:14:18;23.10;;;14.50;;
83562;SDS011;73535;52.500;13.482;2024-03-08T12:19:09;22.77;;;13.85;;
83562;SDS011;73535;52.500;13.482;2024-03-08T12:24:01;19.25;;;13.52;;
83562;SDS011;73535;52.500;13.482;2024-03-08T12:26:29;22.33;;;13.73;;
83562;SDS011;73535;52.500;13.482;2024-03-08T12:28:56;17.83;;;12.95;;
83562;SDS011;73535;52.500;13.482;2024-03-08T12:31:39;17.13;;;13.68;;
83562;SDS011;73535;52.500;13.482;2024-03-08T12:34:07;18.60;;;13.48;;
83562;SDS011;73535;52.500;13.482;2024-03-08T12:36:34;15.90;;;12.90;;
83562;SDS011;73535;52.500;13.482;2024-03-08T12:39:01;16.05;;;11.20;;
83562;SDS011;73535;52.500;13.482;2024-03-08T12:41:26;18.15;;;13.02;;
83562;SDS011;73535;52.500;13.482;2024-03-08T12:43:51;18.30;;;12.52;;
83562;SDS011;73535;52.500;13.482;2024-03-08T12:46:17;15.40;;;12.07;;
83562;SDS011;73535;52.500;13.482;2024-03-08T12:48:46;20.85;;;11.13;;
83562;SDS011;73535;52.500;13.482;2024-03-08T12:51:12;14.98;;;12.10;;
83562;SDS011;73535;52.500;13.482;2024-03-08T12:53:38;16.13;;;13.30;;
83562;SDS011;73535;52.500;13.482;2024-03-08T12:56:05;15.40;;;12.25;;
83562;SDS011;73535;52.500;13.482;2024-03-08T12:58:33;15.82;;;11.85;;
83562;SDS011;73535;52.500;13.482;2024-03-08T13:00:58;15.00;;;11.75;;
83562;SDS011;73535;52.500;13.482;2024-03-08T13:03:24;17.20;;;10.90;;
83562;SDS011;73535;52.500;13.482;2024-03-08T13:05:49;14.43;;;11.82;;
83562;SDS011;73535;52.500;13.482;2024-03-08T13:08:14;16.20;;;11.23;;
83562;SDS011;73535;52.500;13.482;2024-03-08T13:13:08;14.48;;;12.27;;
83562;SDS011;73535;52.500;13.482;2024-03-08T13:15:34;14.77;;;12.13;;
83562;SDS011;73535;52.500;13.482;2024-03-08T13:18:00;17.15;;;12.48;;
83562;SDS011;73535;52.500;13.482;2024-03-08T13:20:26;14.82;;;11.90;;
83562;SDS011;73535;52.500;13.482;2024-03-08T13:22:53;12.90;;;10.27;;
83562;SDS011;73535;52.500;13.482;2024-03-08T13:25:18;15.13;;;9.88;;
83562;SDS011;73535;52.500;13.482;2024-03-08T13:27:45;12.70;;;10.75;;
83562;SDS011;73535;52.500;13.482;2024-03-08T13:30:13;13.88;;;10.13;;
83562;SDS011;73535;52.500;13.482;2024-03-08T13:32:43;12.68;;;9.45;;
83562;SDS011;73535;52.500;13.482;2024-03-08T13:35:09;11.80;;;9.70;;
83562;SDS011;73535;52.500;13.482;2024-03-08T13:37:38;13.18;;;9.88;;
83562;SDS011;73535;52.500;13.482;2024-03-08T13:40:04;12.70;;;10.15;;
83562;SDS011;73535;52.500;13.482;2024-03-08T13:42:30;11.60;;;10.07;;
83562;SDS011;73535;52.500;13.482;2024-03-08T13:44:56;11.43;;;9.43;;
83562;SDS011;73535;52.500;13.482;2024-03-08T13:49:46;10.73;;;9.53;;
83562;SDS011;73535;52.500;13.482;2024-03-08T13:54:41;11.35;;;9.82;;
83562;SDS011;73535;52.500;13.482;2024-03-08T13:57:06;11.32;;;10.02;;
83562;SDS011;73535;52.500;13.482;2024-03-08T13:59:32;11.10;;;9.90;;
83562;SDS011;73535;52.500;13.482;2024-03-08T14:02:01;11.32;;;9.50;;
83562;SDS011;73535;52.500;13.482;2024-03-08T14:04:27;12.57;;;8.90;;
83562;SDS011;73535;52.500;13.482;2024-03-08T14:06:53;11.68;;;8.88;;
83562;SDS011;73535;52.500;13.482;2024-03-08T14:09:22;12.40;;;9.80;;
83562;SDS011;73535;52.500;13.482;2024-03-08T14:11:51;11.45;;;9.77;;
83562;SDS011;73535;52.500;13.482;2024-03-08T14:14:20;11.60;;;9.68;;
83562;SDS011;73535;52.500;13.482;2024-03-08T14:16:48;12.05;;;9.65;;
83562;SDS011;73535;52.500;13.482;2024-03-08T14:19:13;11.30;;;8.93;;
83562;SDS011;73535;52.500;13.482;2024-03-08T14:21:40;10.98;;;9.30;;
83562;SDS011;73535;52.500;13.482;2024-03-08T14:24:07;9.75;;;8.07;;
83562;SDS011;73535;52.500;13.482;2024-03-08T14:26:32;10.57;;;8.90;;
83562;SDS011;73535;52.500;13.482;2024-03-08T14:28:57;13.95;;;10.10;;
83562;SDS011;73535;52.500;13.482;2024-03-08T14:31:22;9.98;;;8.75;;
83562;SDS011;73535;52.500;13.482;2024-03-08T14:33:50;10.93;;;9.32;;
83562;SDS011;73535;52.500;13.482;2024-03-08T14:36:16;11.88;;;10.43;;
83562;SDS011;73535;52.500;13.482;2024-03-08T14:38:44;9.02;;;7.97;;
83562;SDS011;73535;52.500;13.482;2024-03-08T14:41:12;11.15;;;9.30;;
83562;SDS011;73535;52.500;13.482;2024-03-08T14:43:37;10.63;;;9.52;;
83562;SDS011;73535;52.500;13.482;2024-03-08T14:48:28;10.63;;;9.43;;
83562;SDS011;73535;52.500;13.482;2024-03-08T14:53:18;12.87;;;9.13;;
83562;SDS011;73535;52.500;13.482;2024-03-08T14:58:11;9.30;;;8.38;;
83562;SDS011;73535;52.500;13.482;2024-03-08T15:00:37;11.32;;;9.73;;
83562;SDS011;73535;52.500;13.482;2024-03-08T15:03:05;11.68;;;9.40;;
83562;SDS011;73535;52.500;13.482;2024-03-08T15:05:31;11.20;;;9.32;;
83562;SDS011;73535;52.500;13.482;2024-03-08T15:07:57;9.02;;;8.13;;
83562;SDS011;73535;52.500;13.482;2024-03-08T15:10:25;11.23;;;9.13;;
83562;SDS011;73535;52.500;13.482;2024-03-08T15:12:51;12.27;;;9.38;;
83562;SDS011;73535;52.500;13.482;2024-03-08T15:15:20;12.13;;;8.93;;
83562;SDS011;73535;52.500;13.482;2024-03-08T15:17:47;9.52;;;8.52;;
83562;SDS011;73535;52.500;13.482;2024-03-08T15:20:13;11.20;;;9.20;;
83562;SDS011;73535;52.500;13.482;2024-03-08T15:22:42;11.93;;;8.65;;
83562;SDS011;73535;52.500;13.482;2024-03-08T15:27:36;10.40;;;9.00;;
83562;SDS011;73535;52.500;13.482;2024-03-08T15:30:04;10.10;;;9.10;;
83562;SDS011;73535;52.500;13.482;2024-03-08T15:32:33;9.70;;;8.60;;
83562;SDS011;73535;52.500;13.482;2024-03-08T15:34:58;10.52;;;8.20;;
83562;SDS011;73535;52.500;13.482;2024-03-08T15:39:50;12.23;;;9.10;;